sensor_id;sensor_type;location;lat;lon;timestamp;P1;durP1;ratioP1;P2;durP2;ratioP2
5499;SDS011;2772;42.700;23.304;2023-07-09T00:01:03;24.27;;;11.47;;
5499;SDS011;2772;42.700;23.304;2023-07-09T00:03:30;10.73;;;7.10;;
5499;SDS011;2772;42.700;23.304;2023-07-09T00:05:57;35.63;;;17.40;;
5499;SDS011;2772;42.700;23.304;2023-07-09T00:08:25;28.17;;;13.50;;
5499;SDS011;2772;42.700;23.304;2023-07-09T00:10:53;13.80;;;8.40;;
5499;SDS011;2772;42.700;23.304;2023-07-09T00:13:22;17.23;;;9.47;;
5499;SDS011;2772;42.700;23.304;2023-07-09T00:15:49;20.63;;;11.53;;
5499;SDS011;2772;42.700;23.304;2023-07-09T00:18:17;32.27;;;10.07;;
5499;SDS011;2772;42.700;23.304;2023-07-09T00:20:46;11.23;;;7.73;;
5499;SDS011;2772;42.700;23.304;2023-07-09T00:23:13;13.83;;;7.37;;
5499;SDS011;2772;42.700;23.304;2023-07-09T00:25:41;9.53;;;6.37;;
5499;SDS011;2772;42.700;23.304;2023-07-09T00:28:12;14.00;;;7.30;;
5499;SDS011;2772;42.700;23.304;2023-07-09T00:30:40;15.93;;;6.57;;
5499;SDS011;2772;42.700;23.304;2023-07-09T00:33:07;10.00;;;6.40;;
5499;SDS011;2772;42.700;23.304;2023-07-09T00:35:39;9.10;;;6.37;;
5499;SDS011;2772;42.700;23.304;2023-07-09T00:38:08;11.50;;;4.37;;
5499;SDS011;2772;42.700;23.304;2023-07-09T00:40:46;5.70;;;4.97;;
5499;SDS011;2772;42.700;23.304;2023-07-09T00:43:15;6.83;;;4.67;;
5499;SDS011;2772;42.700;23.304;2023-07-09T00:45:44;8.10;;;5.27;;
5499;SDS011;2772;42.700;23.304;2023-07-09T00:48:12;5.00;;;4.50;;
5499;SDS011;2772;42.700;23.304;2023-07-09T00:50:42;7.17;;;5.50;;
5499;SDS011;2772;42.700;23.304;2023-07-09T00:53:15;6.87;;;5.10;;
5499;SDS011;2772;42.700;23.304;2023-07-09T00:55:46;9.20;;;6.07;;
5499;SDS011;2772;42.700;23.304;2023-07-09T00:58:18;8.80;;;5.10;;
5499;SDS011;2772;42.700;23.304;2023-07-09T01:00:49;5.30;;;4.80;;
5499;SDS011;2772;42.700;23.304;2023-07-09T01:03:21;9.33;;;4.70;;
5499;SDS011;2772;42.700;23.304;2023-07-09T01:05:52;8.17;;;4.73;;
5499;SDS011;2772;42.700;23.304;2023-07-09T01:08:20;5.87;;;4.40;;
5499;SDS011;2772;42.700;23.304;2023-07-09T01:10:47;7.90;;;4.60;;
5499;SDS011;2772;42.700;23.304;2023-07-09T01:13:14;5.97;;;4.73;;
5499;SDS011;2772;42.700;23.304;2023-07-09T01:15:41;5.30;;;4.60;;
5499;SDS011;2772;42.700;23.304;2023-07-09T01:18:09;6.80;;;4.90;;
5499;SDS011;2772;42.700;23.304;2023-07-09T01:20:37;7.93;;;4.80;;
5499;SDS011;2772;42.700;23.304;2023-07-09T01:23:07;9.20;;;4.57;;
5499;SDS011;2772;42.700;23.304;2023-07-09T01:25:34;10.40;;;6.57;;
5499;SDS011;2772;42.700;23.304;2023-07-09T01:28:07;15.87;;;8.07;;
5499;SDS011;2772;42.700;23.304;2023-07-09T01:30:35;14.83;;;7.80;;
5499;SDS011;2772;42.700;23.304;2023-07-09T01:33:04;17.47;;;8.10;;
5499;SDS011;2772;42.700;23.304;2023-07-09T01:35:32;19.57;;;9.63;;
5499;SDS011;2772;42.700;23.304;2023-07-09T01:38:01;14.30;;;6.63;;
5499;SDS011;2772;42.700;23.304;2023-07-09T01:40:33;16.60;;;8.33;;
5499;SDS011;2772;42.700;23.304;2023-07-09T01:43:01;22.50;;;9.60;;
5499;SDS011;2772;42.700;23.304;2023-07-09T01:45:31;21.70;;;9.63;;
5499;SDS011;2772;42.700;23.304;2023-07-09T01:47:58;20.93;;;8.63;;
5499;SDS011;2772;42.700;23.304;2023-07-09T01:50:25;15.10;;;6.60;;
5499;SDS011;2772;42.700;23.304;2023-07-09T01:52:52;9.27;;;6.80;;
5499;SDS011;2772;42.700;23.304;2023-07-09T01:55:20;19.20;;;11.70;;
5499;SDS011;2772;42.700;23.304;2023-07-09T01:57:49;19.23;;;10.30;;
5499;SDS011;2772;42.700;23.304;2023-07-09T02:00:16;20.80;;;9.70;;
5499;SDS011;2772;42.700;23.304;2023-07-09T02:02:44;13.83;;;6.83;;
5499;SDS011;2772;42.700;23.304;2023-07-09T02:05:13;8.90;;;4.63;;
5499;SDS011;2772;42.700;23.304;2023-07-09T02:07:40;7.50;;;5.20;;
5499;SDS011;2772;42.700;23.304;2023-07-09T02:10:08;7.43;;;5.50;;
5499;SDS011;2772;42.700;23.304;2023-07-09T02:12:36;6.27;;;5.37;;
5499;SDS011;2772;42.700;23.304;2023-07-09T02:15:05;8.80;;;5.60;;
5499;SDS011;2772;42.700;23.304;2023-07-09T02:17:32;8.80;;;4.77;;
5499;SDS011;2772;42.700;23.304;2023-07-09T02:19:59;23.73;;;5.50;;
5499;SDS011;2772;42.700;23.304;2023-07-09T02:22:25;6.60;;;4.67;;
5499;SDS011;2772;42.700;23.304;2023-07-09T02:24:52;6.53;;;4.70;;
5499;SDS011;2772;42.700;23.304;2023-07-09T02:27:19;13.03;;;8.63;;
5499;SDS011;2772;42.700;23.304;2023-07-09T02:29:47;28.43;;;13.20;;
5499;SDS011;2772;42.700;23.304;2023-07-09T02:32:16;18.83;;;10.23;;
5499;SDS011;2772;42.700;23.304;2023-07-09T02:34:47;10.80;;;6.77;;
5499;SDS011;2772;42.700;23.304;2023-07-09T02:37:18;9.03;;;5.93;;
5499;SDS011;2772;42.700;23.304;2023-07-09T02:39:46;13.03;;;5.57;;
5499;SDS011;2772;42.700;23.304;2023-07-09T02:42:14;12.10;;;5.37;;
5499;SDS011;2772;42.700;23.304;2023-07-09T02:44:42;5.30;;;4.80;;
5499;SDS011;2772;42.700;23.304;2023-07-09T02:47:09;17.73;;;4.80;;
5499;SDS011;2772;42.700;23.304;2023-07-09T02:49:38;7.50;;;4.60;;
5499;SDS011;2772;42.700;23.304;2023-07-09T02:52:06;8.50;;;5.40;;
5499;SDS011;2772;42.700;23.304;2023-07-09T02:54:33;15.03;;;4.63;;
5499;SDS011;2772;42.700;23.304;2023-07-09T02:57:00;10.07;;;5.20;;
5499;SDS011;2772;42.700;23.304;2023-07-09T02:59:27;6.37;;;5.23;;
5499;SDS011;2772;42.700;23.304;2023-07-09T03:01:54;11.00;;;4.90;;
5499;SDS011;2772;42.700;23.304;2023-07-09T03:04:21;6.30;;;4.80;;
5499;SDS011;2772;42.700;23.304;2023-07-09T03:06:49;11.37;;;4.70;;
5499;SDS011;2772;42.700;23.304;2023-07-09T03:09:16;5.33;;;4.77;;
5499;SDS011;2772;42.700;23.304;2023-07-09T03:11:43;9.83;;;4.43;;
5499;SDS011;2772;42.700;23.304;2023-07-09T03:14:10;8.10;;;4.70;;
5499;SDS011;2772;42.700;23.304;2023-07-09T03:16:37;7.13;;;4.60;;
5499;SDS011;2772;42.700;23.304;2023-07-09T03:19:05;10.90;;;4.83;;
5499;SDS011;2772;42.700;23.304;2023-07-09T03:21:32;14.17;;;5.03;;
5499;SDS011;2772;42.700;23.304;2023-07-09T03:24:00;10.77;;;4.80;;
5499;SDS011;2772;42.700;23.304;2023-07-09T03:26:27;8.23;;;4.70;;
5499;SDS011;2772;42.700;23.304;2023-07-09T03:28:54;6.83;;;5.63;;
5499;SDS011;2772;42.700;23.304;2023-07-09T03:31:23;6.30;;;5.10;;
5499;SDS011;2772;42.700;23.304;2023-07-09T03:33:51;6.60;;;5.53;;
5499;SDS011;2772;42.700;23.304;2023-07-09T03:36:18;8.17;;;5.87;;
5499;SDS011;2772;42.700;23.304;2023-07-09T03:38:46;15.23;;;5.47;;
5499;SDS011;2772;42.700;23.304;2023-07-09T03:41:16;5.60;;;5.10;;
5499;SDS011;2772;42.700;23.304;2023-07-09T03:43:42;17.70;;;5.57;;
5499;SDS011;2772;42.700;23.304;2023-07-09T03:46:10;5.77;;;5.13;;
5499;SDS011;2772;42.700;23.304;2023-07-09T03:48:37;10.33;;;5.70;;
5499;SDS011;2772;42.700;23.304;2023-07-09T03:51:03;6.90;;;5.10;;
5499;SDS011;2772;42.700;23.304;2023-07-09T03:53:30;8.83;;;5.33;;
5499;SDS011;2772;42.700;23.304;2023-07-09T03:55:57;7.20;;;4.90;;
5499;SDS011;2772;42.700;23.304;2023-07-09T03:58:26;11.73;;;5.73;;
5499;SDS011;2772;42.700;23.304;2023-07-09T04:00:53;6.73;;;5.07;;
5499;SDS011;2772;42.700;23.304;2023-07-09T04:03:20;7.90;;;4.90;;
5499;SDS011;2772;42.700;23.304;2023-07-09T04:05:47;8.30;;;5.10;;
5499;SDS011;2772;42.700;23.304;2023-07-09T04:08:14;8.53;;;5.00;;
5499;SDS011;2772;42.700;23.304;2023-07-09T04:10:40;9.43;;;5.13;;
5499;SDS011;2772;42.700;23.304;2023-07-09T04:13:07;7.93;;;5.63;;
5499;SDS011;2772;42.700;23.304;2023-07-09T04:15:35;10.20;;;5.73;;
5499;SDS011;2772;42.700;23.304;2023-07-09T04:18:02;6.60;;;5.30;;
5499;SDS011;2772;42.700;23.304;2023-07-09T04:20:29;7.73;;;6.00;;
5499;SDS011;2772;42.700;23.304;2023-07-09T04:22:56;9.43;;;5.77;;
5499;SDS011;2772;42.700;23.304;2023-07-09T04:25:23;9.63;;;5.73;;
5499;SDS011;2772;42.700;23.304;2023-07-09T04:27:49;13.93;;;5.70;;
5499;SDS011;2772;42.700;23.304;2023-07-09T04:30:16;7.80;;;5.00;;
5499;SDS011;2772;42.700;23.304;2023-07-09T04:32:45;19.17;;;5.30;;
5499;SDS011;2772;42.700;23.304;2023-07-09T04:35:12;10.73;;;6.40;;
5499;SDS011;2772;42.700;23.304;2023-07-09T04:37:39;11.80;;;6.07;;
5499;SDS011;2772;42.700;23.304;2023-07-09T04:40:07;7.60;;;5.20;;
5499;SDS011;2772;42.700;23.304;2023-07-09T04:42:36;5.23;;;4.73;;
5499;SDS011;2772;42.700;23.304;2023-07-09T04:45:05;15.80;;;5.03;;
5499;SDS011;2772;42.700;23.304;2023-07-09T04:47:33;9.90;;;4.67;;
5499;SDS011;2772;42.700;23.304;2023-07-09T04:50:01;10.60;;;5.43;;
5499;SDS011;2772;42.700;23.304;2023-07-09T04:52:28;8.63;;;5.20;;
5499;SDS011;2772;42.700;23.304;2023-07-09T04:54:56;6.77;;;5.50;;
5499;SDS011;2772;42.700;23.304;2023-07-09T04:59:52;17.40;;;5.27;;
5499;SDS011;2772;42.700;23.304;2023-07-09T05:02:19;13.43;;;5.77;;
5499;SDS011;2772;42.700;23.304;2023-07-09T05:04:46;7.57;;;5.37;;
5499;SDS011;2772;42.700;23.304;2023-07-09T05:07:14;6.00;;;4.83;;
5499;SDS011;2772;42.700;23.304;2023-07-09T05:09:41;10.10;;;5.57;;
5499;SDS011;2772;42.700;23.304;2023-07-09T05:12:08;8.67;;;5.47;;
5499;SDS011;2772;42.700;23.304;2023-07-09T05:14:35;14.20;;;6.10;;
5499;SDS011;2772;42.700;23.304;2023-07-09T05:17:04;18.87;;;7.20;;
5499;SDS011;2772;42.700;23.304;2023-07-09T05:19:31;9.30;;;6.17;;
5499;SDS011;2772;42.700;23.304;2023-07-09T05:21:58;7.47;;;5.30;;
5499;SDS011;2772;42.700;23.304;2023-07-09T05:24:26;9.43;;;5.50;;
5499;SDS011;2772;42.700;23.304;2023-07-09T05:26:53;9.50;;;5.50;;
5499;SDS011;2772;42.700;23.304;2023-07-09T05:29:20;7.57;;;4.73;;
5499;SDS011;2772;42.700;23.304;2023-07-09T05:31:47;7.10;;;4.70;;
5499;SDS011;2772;42.700;23.304;2023-07-09T05:34:14;10.00;;;6.20;;
5499;SDS011;2772;42.700;23.304;2023-07-09T05:36:40;9.77;;;5.07;;
5499;SDS011;2772;42.700;23.304;2023-07-09T05:39:07;6.20;;;4.80;;
5499;SDS011;2772;42.700;23.304;2023-07-09T05:41:35;7.73;;;4.83;;
5499;SDS011;2772;42.700;23.304;2023-07-09T05:44:02;6.53;;;5.10;;
5499;SDS011;2772;42.700;23.304;2023-07-09T05:46:33;12.10;;;5.30;;
5499;SDS011;2772;42.700;23.304;2023-07-09T05:49:01;11.10;;;5.20;;
5499;SDS011;2772;42.700;23.304;2023-07-09T05:51:28;15.97;;;5.60;;
5499;SDS011;2772;42.700;23.304;2023-07-09T05:53:54;12.53;;;5.57;;
5499;SDS011;2772;42.700;23.304;2023-07-09T05:56:21;7.43;;;5.30;;
5499;SDS011;2772;42.700;23.304;2023-07-09T05:58:49;8.97;;;5.50;;
5499;SDS011;2772;42.700;23.304;2023-07-09T06:01:17;9.70;;;5.70;;
5499;SDS011;2772;42.700;23.304;2023-07-09T06:03:45;15.87;;;5.80;;
5499;SDS011;2772;42.700;23.304;2023-07-09T06:06:12;9.20;;;5.03;;
5499;SDS011;2772;42.700;23.304;2023-07-09T06:08:38;14.17;;;5.27;;
5499;SDS011;2772;42.700;23.304;2023-07-09T06:11:05;6.83;;;5.27;;
5499;SDS011;2772;42.700;23.304;2023-07-09T06:13:32;9.63;;;5.17;;
5499;SDS011;2772;42.700;23.304;2023-07-09T06:16:00;6.60;;;4.93;;
5499;SDS011;2772;42.700;23.304;2023-07-09T06:18:28;10.83;;;5.77;;
5499;SDS011;2772;42.700;23.304;2023-07-09T06:20:55;12.60;;;5.20;;
5499;SDS011;2772;42.700;23.304;2023-07-09T06:23:25;5.50;;;5.00;;
5499;SDS011;2772;42.700;23.304;2023-07-09T06:25:52;9.70;;;4.80;;
5499;SDS011;2772;42.700;23.304;2023-07-09T06:28:20;5.47;;;4.97;;
5499;SDS011;2772;42.700;23.304;2023-07-09T06:30:48;5.20;;;4.70;;
5499;SDS011;2772;42.700;23.304;2023-07-09T06:33:16;6.90;;;5.17;;
5499;SDS011;2772;42.700;23.304;2023-07-09T06:35:48;6.67;;;6.07;;
5499;SDS011;2772;42.700;23.304;2023-07-09T06:38:15;12.90;;;6.00;;
5499;SDS011;2772;42.700;23.304;2023-07-09T06:40:45;11.83;;;5.13;;
5499;SDS011;2772;42.700;23.304;2023-07-09T06:43:12;6.83;;;5.03;;
5499;SDS011;2772;42.700;23.304;2023-07-09T06:45:47;5.80;;;5.30;;
5499;SDS011;2772;42.700;23.304;2023-07-09T06:48:16;6.47;;;5.27;;
5499;SDS011;2772;42.700;23.304;2023-07-09T06:50:51;5.90;;;5.30;;
5499;SDS011;2772;42.700;23.304;2023-07-09T06:53:31;11.33;;;4.90;;
5499;SDS011;2772;42.700;23.304;2023-07-09T06:55:58;12.30;;;5.43;;
5499;SDS011;2772;42.700;23.304;2023-07-09T06:58:26;9.13;;;5.33;;
5499;SDS011;2772;42.700;23.304;2023-07-09T07:01:00;7.90;;;4.43;;
5499;SDS011;2772;42.700;23.304;2023-07-09T07:03:30;13.70;;;5.23;;
5499;SDS011;2772;42.700;23.304;2023-07-09T07:05:57;9.07;;;4.97;;
5499;SDS011;2772;42.700;23.304;2023-07-09T07:08:24;7.50;;;4.60;;
5499;SDS011;2772;42.700;23.304;2023-07-09T07:10:53;6.30;;;5.00;;
5499;SDS011;2772;42.700;23.304;2023-07-09T07:13:26;11.40;;;4.57;;
5499;SDS011;2772;42.700;23.304;2023-07-09T07:15:53;6.67;;;4.80;;
5499;SDS011;2772;42.700;23.304;2023-07-09T07:18:20;10.10;;;5.20;;
5499;SDS011;2772;42.700;23.304;2023-07-09T07:20:48;24.37;;;6.80;;
5499;SDS011;2772;42.700;23.304;2023-07-09T07:23:15;6.87;;;5.30;;
5499;SDS011;2772;42.700;23.304;2023-07-09T07:25:42;8.60;;;5.30;;
5499;SDS011;2772;42.700;23.304;2023-07-09T07:28:08;13.20;;;10.10;;
5499;SDS011;2772;42.700;23.304;2023-07-09T07:30:35;5.40;;;4.90;;
5499;SDS011;2772;42.700;23.304;2023-07-09T07:33:02;13.80;;;8.90;;
5499;SDS011;2772;42.700;23.304;2023-07-09T07:35:29;10.30;;;7.17;;
5499;SDS011;2772;42.700;23.304;2023-07-09T07:37:57;12.13;;;5.90;;
5499;SDS011;2772;42.700;23.304;2023-07-09T07:40:24;8.30;;;4.93;;
5499;SDS011;2772;42.700;23.304;2023-07-09T07:42:50;5.00;;;4.60;;
5499;SDS011;2772;42.700;23.304;2023-07-09T07:45:17;16.97;;;5.90;;
5499;SDS011;2772;42.700;23.304;2023-07-09T07:47:44;4.60;;;4.00;;
5499;SDS011;2772;42.700;23.304;2023-07-09T07:50:11;8.50;;;4.67;;
5499;SDS011;2772;42.700;23.304;2023-07-09T07:52:37;12.33;;;5.27;;
5499;SDS011;2772;42.700;23.304;2023-07-09T07:55:06;4.93;;;4.53;;
5499;SDS011;2772;42.700;23.304;2023-07-09T07:57:34;16.67;;;11.30;;
5499;SDS011;2772;42.700;23.304;2023-07-09T08:00:00;6.03;;;4.90;;
5499;SDS011;2772;42.700;23.304;2023-07-09T08:02:28;8.10;;;5.00;;
5499;SDS011;2772;42.700;23.304;2023-07-09T08:04:55;11.47;;;6.10;;
5499;SDS011;2772;42.700;23.304;2023-07-09T08:07:21;5.60;;;4.03;;
5499;SDS011;2772;42.700;23.304;2023-07-09T08:09:48;5.97;;;4.70;;
5499;SDS011;2772;42.700;23.304;2023-07-09T08:12:16;8.47;;;5.30;;
5499;SDS011;2772;42.700;23.304;2023-07-09T08:14:44;6.20;;;5.23;;
5499;SDS011;2772;42.700;23.304;2023-07-09T08:17:12;6.90;;;4.63;;
5499;SDS011;2772;42.700;23.304;2023-07-09T08:19:45;5.23;;;4.80;;
5499;SDS011;2772;42.700;23.304;2023-07-09T08:22:13;9.90;;;5.30;;
5499;SDS011;2772;42.700;23.304;2023-07-09T08:24:40;5.80;;;5.00;;
5499;SDS011;2772;42.700;23.304;2023-07-09T08:27:07;8.67;;;4.80;;
5499;SDS011;2772;42.700;23.304;2023-07-09T08:29:36;5.40;;;4.53;;
5499;SDS011;2772;42.700;23.304;2023-07-09T08:32:05;5.67;;;5.07;;
5499;SDS011;2772;42.700;23.304;2023-07-09T08:34:32;12.37;;;5.23;;
5499;SDS011;2772;42.700;23.304;2023-07-09T08:36:58;6.50;;;4.93;;
5499;SDS011;2772;42.700;23.304;2023-07-09T08:39:25;31.00;;;6.90;;
5499;SDS011;2772;42.700;23.304;2023-07-09T08:42:03;10.70;;;4.53;;
5499;SDS011;2772;42.700;23.304;2023-07-09T08:44:44;6.22;;;4.80;;
5499;SDS011;2772;42.700;23.304;2023-07-09T08:47:27;6.87;;;5.30;;
5499;SDS011;2772;42.700;23.304;2023-07-09T08:50:00;13.63;;;5.20;;
5499;SDS011;2772;42.700;23.304;2023-07-09T08:52:31;6.03;;;5.53;;
5499;SDS011;2772;42.700;23.304;2023-07-09T08:55:01;6.40;;;5.33;;
5499;SDS011;2772;42.700;23.304;2023-07-09T08:57:34;9.30;;;5.60;;
5499;SDS011;2772;42.700;23.304;2023-07-09T09:00:13;4.50;;;4.10;;
5499;SDS011;2772;42.700;23.304;2023-07-09T09:02:44;5.70;;;5.30;;
5499;SDS011;2772;42.700;23.304;2023-07-09T09:05:17;5.10;;;4.70;;
5499;SDS011;2772;42.700;23.304;2023-07-09T09:07:45;5.60;;;5.00;;
5499;SDS011;2772;42.700;23.304;2023-07-09T09:10:20;7.37;;;4.83;;
5499;SDS011;2772;42.700;23.304;2023-07-09T09:12:56;7.37;;;4.50;;
5499;SDS011;2772;42.700;23.304;2023-07-09T09:15:33;5.13;;;4.63;;
5499;SDS011;2772;42.700;23.304;2023-07-09T09:18:09;7.47;;;6.77;;
5499;SDS011;2772;42.700;23.304;2023-07-09T09:20:44;6.93;;;5.03;;
5499;SDS011;2772;42.700;23.304;2023-07-09T09:23:13;7.70;;;5.73;;
5499;SDS011;2772;42.700;23.304;2023-07-09T09:25:42;8.33;;;4.57;;
5499;SDS011;2772;42.700;23.304;2023-07-09T09:28:13;5.73;;;4.53;;
5499;SDS011;2772;42.700;23.304;2023-07-09T09:30:41;5.20;;;4.40;;
5499;SDS011;2772;42.700;23.304;2023-07-09T09:33:11;4.90;;;4.40;;
5499;SDS011;2772;42.700;23.304;2023-07-09T09:36:00;12.33;;;6.33;;
5499;SDS011;2772;42.700;23.304;2023-07-09T09:38:35;5.70;;;4.83;;
5499;SDS011;2772;42.700;23.304;2023-07-09T09:41:02;5.00;;;4.50;;
5499;SDS011;2772;42.700;23.304;2023-07-09T09:43:31;7.40;;;4.90;;
5499;SDS011;2772;42.700;23.304;2023-07-09T09:46:00;7.27;;;5.00;;
5499;SDS011;2772;42.700;23.304;2023-07-09T09:48:33;10.63;;;4.93;;
5499;SDS011;2772;42.700;23.304;2023-07-09T09:51:03;9.07;;;5.03;;
5499;SDS011;2772;42.700;23.304;2023-07-09T09:53:37;5.20;;;4.50;;
5499;SDS011;2772;42.700;23.304;2023-07-09T09:56:06;6.13;;;5.00;;
5499;SDS011;2772;42.700;23.304;2023-07-09T09:58:40;9.90;;;4.80;;
5499;SDS011;2772;42.700;23.304;2023-07-09T10:01:12;7.13;;;4.07;;
5499;SDS011;2772;42.700;23.304;2023-07-09T10:03:41;5.20;;;4.80;;
5499;SDS011;2772;42.700;23.304;2023-07-09T10:06:12;5.47;;;4.90;;
5499;SDS011;2772;42.700;23.304;2023-07-09T10:08:43;14.87;;;5.43;;
5499;SDS011;2772;42.700;23.304;2023-07-09T10:11:21;5.37;;;4.87;;
5499;SDS011;2772;42.700;23.304;2023-07-09T10:13:58;6.13;;;5.07;;
5499;SDS011;2772;42.700;23.304;2023-07-09T10:16:34;6.57;;;4.90;;
5499;SDS011;2772;42.700;23.304;2023-07-09T10:19:12;5.83;;;4.83;;
5499;SDS011;2772;42.700;23.304;2023-07-09T10:21:51;6.80;;;5.30;;
5499;SDS011;2772;42.700;23.304;2023-07-09T10:24:28;4.77;;;4.37;;
5499;SDS011;2772;42.700;23.304;2023-07-09T10:27:08;5.83;;;4.60;;
5499;SDS011;2772;42.700;23.304;2023-07-09T10:29:42;4.80;;;4.40;;
5499;SDS011;2772;42.700;23.304;2023-07-09T10:32:24;5.77;;;5.00;;
5499;SDS011;2772;42.700;23.304;2023-07-09T10:35:04;6.10;;;4.60;;
5499;SDS011;2772;42.700;23.304;2023-07-09T10:37:45;6.10;;;4.70;;
5499;SDS011;2772;42.700;23.304;2023-07-09T10:40:23;5.57;;;4.90;;
5499;SDS011;2772;42.700;23.304;2023-07-09T10:42:57;4.80;;;4.40;;
5499;SDS011;2772;42.700;23.304;2023-07-09T10:45:28;4.27;;;3.97;;
5499;SDS011;2772;42.700;23.304;2023-07-09T10:47:59;4.40;;;3.97;;
5499;SDS011;2772;42.700;23.304;2023-07-09T10:50:31;6.60;;;4.30;;
5499;SDS011;2772;42.700;23.304;2023-07-09T10:53:04;5.43;;;4.93;;
5499;SDS011;2772;42.700;23.304;2023-07-09T10:55:39;5.13;;;4.70;;
5499;SDS011;2772;42.700;23.304;2023-07-09T10:58:19;4.47;;;4.07;;
5499;SDS011;2772;42.700;23.304;2023-07-09T11:00:52;4.47;;;4.00;;
5499;SDS011;2772;42.700;23.304;2023-07-09T11:03:21;7.70;;;4.13;;
5499;SDS011;2772;42.700;23.304;2023-07-09T11:05:55;4.70;;;4.30;;
5499;SDS011;2772;42.700;23.304;2023-07-09T11:08:24;4.37;;;3.97;;
5499;SDS011;2772;42.700;23.304;2023-07-09T11:10:56;6.07;;;4.03;;
5499;SDS011;2772;42.700;23.304;2023-07-09T11:13:30;5.47;;;4.53;;
5499;SDS011;2772;42.700;23.304;2023-07-09T11:16:02;5.10;;;4.20;;
5499;SDS011;2772;42.700;23.304;2023-07-09T11:18:33;4.37;;;4.00;;
5499;SDS011;2772;42.700;23.304;2023-07-09T11:21:03;4.50;;;4.20;;
5499;SDS011;2772;42.700;23.304;2023-07-09T11:23:39;4.47;;;4.07;;
5499;SDS011;2772;42.700;23.304;2023-07-09T11:26:13;8.27;;;4.40;;
5499;SDS011;2772;42.700;23.304;2023-07-09T11:28:50;4.00;;;3.70;;
5499;SDS011;2772;42.700;23.304;2023-07-09T11:31:21;5.20;;;4.13;;
5499;SDS011;2772;42.700;23.304;2023-07-09T11:36:46;4.90;;;4.50;;
5499;SDS011;2772;42.700;23.304;2023-07-09T11:39:20;4.70;;;3.90;;
5499;SDS011;2772;42.700;23.304;2023-07-09T11:41:49;4.80;;;4.40;;
5499;SDS011;2772;42.700;23.304;2023-07-09T11:44:17;7.50;;;4.20;;
5499;SDS011;2772;42.700;23.304;2023-07-09T11:46:50;5.33;;;4.13;;
5499;SDS011;2772;42.700;23.304;2023-07-09T11:49:25;4.20;;;3.90;;
5499;SDS011;2772;42.700;23.304;2023-07-09T11:51:57;4.77;;;3.90;;
5499;SDS011;2772;42.700;23.304;2023-07-09T11:54:28;3.70;;;3.40;;
5499;SDS011;2772;42.700;23.304;2023-07-09T11:57:00;7.00;;;3.90;;
5499;SDS011;2772;42.700;23.304;2023-07-09T11:59:28;4.33;;;3.93;;
5499;SDS011;2772;42.700;23.304;2023-07-09T12:01:55;5.43;;;3.77;;
5499;SDS011;2772;42.700;23.304;2023-07-09T12:04:28;4.60;;;4.07;;
5499;SDS011;2772;42.700;23.304;2023-07-09T12:06:59;16.03;;;4.43;;
5499;SDS011;2772;42.700;23.304;2023-07-09T12:09:30;4.47;;;4.17;;
5499;SDS011;2772;42.700;23.304;2023-07-09T12:11:58;4.97;;;4.47;;
5499;SDS011;2772;42.700;23.304;2023-07-09T12:14:25;4.20;;;3.90;;
5499;SDS011;2772;42.700;23.304;2023-07-09T12:16:52;8.57;;;4.13;;
5499;SDS011;2772;42.700;23.304;2023-07-09T12:19:20;5.60;;;4.37;;
5499;SDS011;2772;42.700;23.304;2023-07-09T12:21:52;5.53;;;3.80;;
5499;SDS011;2772;42.700;23.304;2023-07-09T12:24:22;5.23;;;4.60;;
5499;SDS011;2772;42.700;23.304;2023-07-09T12:26:51;4.60;;;4.17;;
5499;SDS011;2772;42.700;23.304;2023-07-09T12:29:18;4.53;;;4.00;;
5499;SDS011;2772;42.700;23.304;2023-07-09T12:31:45;5.63;;;4.57;;
5499;SDS011;2772;42.700;23.304;2023-07-09T12:34:12;10.30;;;3.93;;
5499;SDS011;2772;42.700;23.304;2023-07-09T12:36:41;9.93;;;4.10;;
5499;SDS011;2772;42.700;23.304;2023-07-09T12:39:13;7.60;;;4.27;;
5499;SDS011;2772;42.700;23.304;2023-07-09T12:41:43;5.60;;;4.23;;
5499;SDS011;2772;42.700;23.304;2023-07-09T12:44:14;4.37;;;4.07;;
5499;SDS011;2772;42.700;23.304;2023-07-09T12:46:43;6.87;;;4.50;;
5499;SDS011;2772;42.700;23.304;2023-07-09T12:49:12;4.13;;;3.80;;
5499;SDS011;2772;42.700;23.304;2023-07-09T12:51:47;9.53;;;4.13;;
5499;SDS011;2772;42.700;23.304;2023-07-09T12:54:16;4.40;;;4.00;;
5499;SDS011;2772;42.700;23.304;2023-07-09T12:56:44;4.57;;;3.73;;
5499;SDS011;2772;42.700;23.304;2023-07-09T12:59:15;4.17;;;3.80;;
5499;SDS011;2772;42.700;23.304;2023-07-09T13:01:47;7.07;;;3.87;;
5499;SDS011;2772;42.700;23.304;2023-07-09T13:04:15;11.10;;;4.20;;
5499;SDS011;2772;42.700;23.304;2023-07-09T13:06:42;4.00;;;3.60;;
5499;SDS011;2772;42.700;23.304;2023-07-09T13:09:12;7.33;;;4.30;;
5499;SDS011;2772;42.700;23.304;2023-07-09T13:11:46;6.90;;;4.30;;
5499;SDS011;2772;42.700;23.304;2023-07-09T13:14:17;4.30;;;3.90;;
5499;SDS011;2772;42.700;23.304;2023-07-09T13:16:46;4.67;;;4.27;;
5499;SDS011;2772;42.700;23.304;2023-07-09T13:19:13;6.53;;;4.23;;
5499;SDS011;2772;42.700;23.304;2023-07-09T13:21:40;4.60;;;4.20;;
5499;SDS011;2772;42.700;23.304;2023-07-09T13:24:10;5.37;;;4.97;;
5499;SDS011;2772;42.700;23.304;2023-07-09T13:26:41;5.43;;;3.93;;
5499;SDS011;2772;42.700;23.304;2023-07-09T13:29:10;7.43;;;4.20;;
5499;SDS011;2772;42.700;23.304;2023-07-09T13:31:40;4.30;;;4.00;;
5499;SDS011;2772;42.700;23.304;2023-07-09T13:34:08;6.13;;;4.40;;
5499;SDS011;2772;42.700;23.304;2023-07-09T13:36:44;4.53;;;3.90;;
5499;SDS011;2772;42.700;23.304;2023-07-09T13:39:11;4.60;;;4.20;;
5499;SDS011;2772;42.700;23.304;2023-07-09T13:41:39;4.27;;;4.00;;
5499;SDS011;2772;42.700;23.304;2023-07-09T13:44:10;5.90;;;4.50;;
5499;SDS011;2772;42.700;23.304;2023-07-09T13:46:39;4.50;;;4.10;;
5499;SDS011;2772;42.700;23.304;2023-07-09T13:49:08;7.53;;;4.20;;
5499;SDS011;2772;42.700;23.304;2023-07-09T13:51:36;7.00;;;4.50;;
5499;SDS011;2772;42.700;23.304;2023-07-09T13:54:06;5.67;;;4.17;;
5499;SDS011;2772;42.700;23.304;2023-07-09T13:56:42;4.67;;;4.37;;
5499;SDS011;2772;42.700;23.304;2023-07-09T13:59:13;5.20;;;4.20;;
5499;SDS011;2772;42.700;23.304;2023-07-09T14:01:42;6.80;;;4.30;;
5499;SDS011;2772;42.700;23.304;2023-07-09T14:04:11;9.83;;;4.03;;
5499;SDS011;2772;42.700;23.304;2023-07-09T14:06:41;6.53;;;4.00;;
5499;SDS011;2772;42.700;23.304;2023-07-09T14:09:08;4.73;;;4.43;;
5499;SDS011;2772;42.700;23.304;2023-07-09T14:11:35;4.93;;;4.53;;
5499;SDS011;2772;42.700;23.304;2023-07-09T14:14:11;5.90;;;4.10;;
5499;SDS011;2772;42.700;23.304;2023-07-09T14:16:43;4.90;;;4.50;;
5499;SDS011;2772;42.700;23.304;2023-07-09T14:19:12;4.40;;;4.10;;
5499;SDS011;2772;42.700;23.304;2023-07-09T14:21:40;4.10;;;3.80;;
5499;SDS011;2772;42.700;23.304;2023-07-09T14:24:13;5.23;;;4.23;;
5499;SDS011;2772;42.700;23.304;2023-07-09T14:26:45;10.00;;;4.73;;
5499;SDS011;2772;42.700;23.304;2023-07-09T14:29:13;4.80;;;3.90;;
5499;SDS011;2772;42.700;23.304;2023-07-09T14:31:40;5.40;;;4.20;;
5499;SDS011;2772;42.700;23.304;2023-07-09T14:34:13;4.50;;;4.20;;
5499;SDS011;2772;42.700;23.304;2023-07-09T14:36:44;7.53;;;3.93;;
5499;SDS011;2772;42.700;23.304;2023-07-09T14:39:11;4.30;;;3.90;;
5499;SDS011;2772;42.700;23.304;2023-07-09T14:41:38;9.43;;;4.20;;
5499;SDS011;2772;42.700;23.304;2023-07-09T14:44:09;6.00;;;4.27;;
5499;SDS011;2772;42.700;23.304;2023-07-09T14:46:47;4.37;;;3.90;;
5499;SDS011;2772;42.700;23.304;2023-07-09T14:49:14;4.33;;;4.03;;
5499;SDS011;2772;42.700;23.304;2023-07-09T14:51:41;4.27;;;3.97;;
5499;SDS011;2772;42.700;23.304;2023-07-09T14:54:10;7.43;;;3.97;;
5499;SDS011;2772;42.700;23.304;2023-07-09T14:56:45;6.80;;;4.23;;
5499;SDS011;2772;42.700;23.304;2023-07-09T14:59:12;4.37;;;3.97;;
5499;SDS011;2772;42.700;23.304;2023-07-09T15:01:40;5.57;;;3.53;;
5499;SDS011;2772;42.700;23.304;2023-07-09T15:04:13;6.07;;;4.30;;
5499;SDS011;2772;42.700;23.304;2023-07-09T15:06:54;9.07;;;4.07;;
5499;SDS011;2772;42.700;23.304;2023-07-09T15:09:22;5.80;;;4.10;;
5499;SDS011;2772;42.700;23.304;2023-07-09T15:11:50;4.33;;;4.03;;
5499;SDS011;2772;42.700;23.304;2023-07-09T15:14:18;4.40;;;4.10;;
5499;SDS011;2772;42.700;23.304;2023-07-09T15:16:47;5.43;;;3.83;;